createdAt,value
2023-02-23T00:02:06.808Z,24.17
2023-02-23T00:04:35.562Z,23.30
2023-02-23T00:07:03.158Z,24.42
2023-02-23T00:09:35.541Z,22.65
2023-02-23T00:12:08.384Z,23.05
2023-02-23T00:14:37.996Z,24.08
2023-02-23T00:17:11.052Z,24.45
2023-02-23T00:19:38.048Z,22.75
2023-02-23T00:22:05.712Z,23.75
2023-02-23T00:24:33.022Z,23.20
2023-02-23T00:27:00.241Z,23.20
2023-02-23T00:29:27.404Z,22.02
2023-02-23T00:31:56.437Z,21.90
2023-02-23T00:34:24.047Z,23.30
2023-02-23T00:36:55.722Z,23.13
2023-02-23T00:39:29.357Z,21.88
2023-02-23T00:42:03.097Z,21.85
2023-02-23T00:44:31.216Z,23.17
2023-02-23T00:46:58.139Z,23.27
2023-02-23T00:49:25.251Z,22.45
2023-02-23T00:51:52.555Z,23.60
2023-02-23T00:54:21.385Z,22.77
2023-02-23T00:56:48.556Z,23.17
2023-02-23T00:59:15.658Z,23.40
2023-02-23T01:01:43.490Z,23.70
2023-02-23T01:04:12.409Z,22.98
2023-02-23T01:06:41.649Z,24.85
2023-02-23T01:09:11.442Z,24.92
2023-02-23T01:11:38.319Z,26.00
2023-02-23T01:14:05.257Z,27.23
2023-02-23T01:16:33.972Z,26.75
2023-02-23T01:19:04.013Z,28.27
2023-02-23T01:21:34.196Z,28.65
2023-02-23T01:24:02.446Z,29.85
2023-02-23T01:26:32.055Z,30.20
2023-02-23T01:29:01.929Z,29.58
2023-02-23T01:31:30.220Z,30.70
2023-02-23T01:33:59.543Z,30.70
2023-02-23T01:36:28.997Z,29.95
2023-02-23T01:39:00.250Z,31.55
2023-02-23T01:41:35.554Z,31.50
2023-02-23T01:44:04.258Z,31.55
2023-02-23T01:46:39.411Z,32.53
2023-02-23T01:49:11.400Z,35.28
2023-02-23T01:51:43.136Z,36.85
2023-02-23T01:54:17.523Z,36.40
2023-02-23T01:56:49.912Z,37.63
2023-02-23T01:59:18.167Z,38.30
2023-02-23T02:01:45.688Z,37.25
2023-02-23T02:04:25.536Z,35.38
2023-02-23T02:07:06.124Z,36.60
2023-02-23T02:09:37.995Z,34.95
2023-02-23T02:12:16.126Z,36.58
2023-02-23T02:14:46.869Z,37.42
2023-02-23T02:17:42.727Z,37.17
2023-02-23T02:26:17.908Z,38.80
2023-02-23T02:29:42.192Z,44.63
2023-02-23T02:32:54.423Z,44.22
2023-02-23T02:35:42.012Z,48.03
2023-02-23T02:38:35.534Z,48.05
2023-02-23T02:41:15.557Z,50.58
2023-02-23T02:44:03.669Z,51.05
2023-02-23T02:46:42.002Z,52.20
2023-02-23T02:49:45.973Z,51.20
2023-02-23T02:52:30.632Z,51.90
2023-02-23T02:55:18.709Z,51.20
2023-02-23T02:58:03.188Z,52.35
2023-02-23T03:00:54.603Z,55.03
2023-02-23T03:04:00.763Z,50.55
2023-02-23T03:09:58.185Z,52.20
2023-02-23T03:13:44.433Z,52.25
2023-02-23T03:16:41.655Z,52.92
2023-02-23T03:19:44.736Z,52.72
2023-02-23T03:22:56.084Z,53.97
2023-02-23T03:26:07.221Z,53.33
2023-02-23T03:29:02.183Z,54.17
2023-02-23T03:32:08.715Z,39.83
2023-02-23T03:35:06.282Z,55.70
2023-02-23T03:38:03.237Z,56.58
2023-02-23T03:40:53.834Z,54.92
2023-02-23T03:43:46.855Z,56.03
2023-02-23T03:46:35.156Z,53.83
2023-02-23T03:49:25.202Z,54.67
2023-02-23T03:52:15.546Z,53.45
2023-02-23T03:55:14.725Z,52.83
2023-02-23T03:58:02.059Z,50.17
2023-02-23T04:00:55.928Z,49.65
2023-02-23T04:03:42.600Z,50.78
2023-02-23T04:06:32.312Z,50.15
2023-02-23T04:09:23.749Z,49.67
2023-02-23T04:12:11.336Z,51.30
2023-02-23T04:15:00.205Z,47.17
2023-02-23T04:17:29.287Z,49.67
2023-02-23T04:19:57.036Z,50.45
2023-02-23T04:22:25.665Z,49.65
2023-02-23T04:24:53.036Z,50.45
2023-02-23T04:27:20.165Z,48.95
2023-02-23T04:29:47.065Z,48.47
2023-02-23T04:32:16.504Z,48.28
2023-02-23T04:34:53.333Z,50.28
2023-02-23T04:37:28.817Z,48.17
2023-02-23T04:42:50.534Z,47.05
2023-02-23T04:45:17.780Z,47.25
2023-02-23T04:47:45.046Z,46.22
2023-02-23T04:50:13.040Z,49.42
2023-02-23T04:52:40.118Z,46.95
2023-02-23T04:55:08.525Z,48.65
2023-02-23T04:57:35.912Z,48.35
2023-02-23T05:00:04.635Z,49.85
2023-02-23T05:02:32.148Z,49.40
2023-02-23T05:04:58.997Z,51.00
2023-02-23T05:07:25.940Z,50.47
2023-02-23T05:09:52.827Z,51.63
2023-02-23T05:12:20.745Z,50.80
2023-02-23T05:14:47.768Z,50.92
2023-02-23T05:17:17.585Z,52.30
2023-02-23T05:19:44.686Z,53.33
2023-02-23T05:22:12.693Z,50.58
2023-02-23T05:24:40.329Z,54.15
2023-02-23T05:27:11.288Z,54.67
2023-02-23T05:29:38.193Z,56.97
2023-02-23T05:32:05.458Z,58.50
2023-02-23T05:34:32.356Z,56.65
2023-02-23T05:36:59.176Z,57.75
2023-02-23T05:39:26.102Z,58.60
2023-02-23T05:41:52.939Z,57.05
2023-02-23T05:44:32.002Z,59.10
2023-02-23T05:47:17.091Z,58.33
2023-02-23T05:50:09.737Z,57.28
2023-02-23T05:52:45.916Z,56.28
2023-02-23T05:58:17.399Z,57.63
2023-02-23T06:01:09.157Z,59.03
2023-02-23T06:12:07.707Z,55.30
2023-02-23T06:14:40.027Z,56.85
2023-02-23T06:17:11.212Z,59.53
2023-02-23T06:19:38.133Z,55.70
2023-02-23T06:22:15.092Z,55.10
2023-02-23T06:24:44.715Z,56.20
2023-02-23T06:27:14.967Z,56.35
2023-02-23T06:29:42.352Z,56.72
2023-02-23T06:32:09.430Z,59.03
2023-02-23T06:34:36.719Z,57.92
2023-02-23T06:37:04.731Z,58.25
2023-02-23T06:39:34.110Z,60.08
2023-02-23T06:42:15.535Z,60.15
2023-02-23T06:44:43.684Z,58.33
2023-02-23T06:47:13.564Z,60.33
2023-02-23T06:49:42.311Z,61.72
2023-02-23T06:52:15.634Z,63.08
2023-02-23T06:54:42.775Z,64.07
2023-02-23T06:57:10.606Z,65.38
2023-02-23T06:59:37.637Z,62.00
2023-02-23T07:02:06.051Z,64.93
2023-02-23T07:04:33.406Z,66.25
2023-02-23T07:07:00.286Z,62.85
2023-02-23T07:09:29.146Z,60.22
2023-02-23T07:11:57.316Z,62.35
2023-02-23T07:14:26.955Z,62.78
2023-02-23T07:16:54.729Z,61.28
2023-02-23T07:19:21.752Z,62.17
2023-02-23T07:21:52.449Z,62.60
2023-02-23T07:24:19.409Z,61.30
2023-02-23T07:26:49.378Z,62.90
2023-02-23T07:29:16.626Z,63.53
2023-02-23T07:31:43.474Z,61.72
2023-02-23T07:34:25.030Z,61.50
2023-02-23T07:36:51.924Z,59.45
2023-02-23T07:39:47.853Z,62.08
2023-02-23T07:42:20.964Z,62.95
2023-02-23T07:44:47.815Z,61.75
2023-02-23T07:47:31.185Z,62.67
2023-02-23T07:50:24.673Z,64.80
2023-02-23T07:53:04.947Z,62.50
2023-02-23T07:55:34.431Z,63.97
2023-02-23T07:58:19.694Z,60.15
2023-02-23T08:01:04.577Z,63.05
2023-02-23T08:06:19.153Z,62.90
2023-02-23T08:08:46.240Z,64.22
2023-02-23T08:11:44.725Z,64.10
2023-02-23T08:14:12.856Z,63.72
2023-02-23T08:16:39.834Z,61.00
2023-02-23T08:19:09.361Z,65.88
2023-02-23T08:21:36.706Z,63.45
2023-02-23T08:24:03.661Z,65.88
2023-02-23T08:26:30.568Z,62.35
2023-02-23T08:29:09.717Z,63.15
2023-02-23T08:31:37.137Z,67.15
2023-02-23T08:34:04.118Z,63.80
2023-02-23T08:36:50.126Z,65.72
2023-02-23T08:39:17.827Z,62.28
2023-02-23T08:42:10.771Z,69.05
2023-02-23T08:44:43.234Z,65.40
2023-02-23T08:47:38.375Z,63.97
2023-02-23T08:50:19.313Z,46.42
2023-02-23T08:53:34.800Z,62.85
2023-02-23T08:59:35.254Z,61.38
2023-02-23T09:02:28.488Z,59.10
2023-02-23T09:05:01.522Z,58.42
2023-02-23T09:08:23.535Z,57.58
2023-02-23T09:11:37.573Z,57.28
2023-02-23T09:14:13.742Z,57.10
2023-02-23T09:16:47.197Z,59.45
2023-02-23T09:19:17.383Z,57.05
2023-02-23T09:23:09.433Z,56.60
2023-02-23T09:24:57.993Z,57.47
2023-02-23T09:27:31.746Z,56.58
2023-02-23T09:30:08.725Z,60.60
2023-02-23T09:32:41.143Z,59.45
2023-02-23T09:35:16.125Z,57.25
2023-02-23T09:37:46.137Z,55.63
2023-02-23T09:40:56.653Z,54.55
2023-02-23T09:43:55.238Z,54.90
2023-02-23T09:46:49.521Z,55.53
2023-02-23T09:49:21.229Z,52.53
2023-02-23T09:52:14.337Z,52.55
2023-02-23T09:54:56.604Z,53.33
2023-02-23T09:57:54.046Z,52.15
2023-02-23T10:00:47.114Z,52.03
2023-02-23T10:06:01.083Z,48.42
2023-02-23T10:08:48.763Z,49.17
2023-02-23T10:11:47.962Z,49.78
2023-02-23T10:14:43.471Z,50.15
2023-02-23T10:17:39.563Z,50.85
2023-02-23T10:20:33.714Z,49.92
2023-02-23T10:30:36.939Z,51.22
2023-02-23T10:33:30.264Z,50.72
2023-02-23T10:36:13.652Z,52.78
2023-02-23T10:38:52.921Z,53.08
2023-02-23T10:41:40.057Z,48.22
2023-02-23T10:44:32.456Z,48.97
2023-02-23T10:47:09.247Z,52.00
2023-02-23T10:50:01.467Z,49.33
2023-02-23T10:52:57.645Z,49.72
2023-02-23T10:55:51.767Z,51.35
2023-02-23T10:58:25.718Z,50.55
2023-02-23T11:01:00.223Z,52.67
2023-02-23T11:03:50.016Z,50.60
2023-02-23T11:06:36.695Z,53.40
2023-02-23T11:09:52.194Z,52.28
2023-02-23T11:12:42.232Z,48.20
2023-02-23T11:15:32.109Z,50.78
2023-02-23T11:18:10.926Z,51.40
2023-02-23T11:20:42.119Z,52.40
2023-02-23T11:23:29.945Z,48.63
2023-02-23T11:26:12.209Z,49.88
2023-02-23T11:28:44.614Z,49.38
2023-02-23T11:31:20.360Z,52.83
2023-02-23T11:34:00.416Z,49.60
2023-02-23T11:36:34.088Z,51.50
2023-02-23T11:39:47.009Z,50.83
2023-02-23T11:42:29.118Z,48.70
2023-02-23T11:45:20.953Z,50.90
2023-02-23T11:47:55.110Z,49.38
2023-02-23T11:50:32.852Z,49.00
2023-02-23T11:53:02.317Z,44.80
2023-02-23T11:55:49.767Z,45.45
2023-02-23T11:58:39.089Z,47.40
2023-02-23T12:01:12.441Z,45.42
2023-02-23T12:03:50.608Z,45.58
2023-02-23T12:06:48.774Z,46.13
2023-02-23T12:09:26.585Z,45.70
2023-02-23T12:12:49.054Z,48.08
2023-02-23T12:16:04.644Z,47.20
2023-02-23T12:18:37.759Z,47.50
2023-02-23T12:21:25.428Z,46.25
2023-02-23T12:24:21.629Z,47.20
2023-02-23T12:26:55.102Z,47.10
2023-02-23T12:29:30.455Z,46.50
2023-02-23T12:32:14.595Z,46.65
2023-02-23T12:35:06.346Z,44.72
2023-02-23T12:38:10.259Z,45.72
2023-02-23T12:40:44.763Z,44.42
2023-02-23T12:44:06.496Z,44.50
2023-02-23T12:46:47.603Z,46.53
2023-02-23T12:49:37.858Z,43.80
2023-02-23T12:52:30.021Z,43.58
2023-02-23T12:54:57.801Z,42.65
2023-02-23T12:57:51.988Z,43.97
2023-02-23T13:00:58.539Z,45.15
2023-02-23T13:03:58.762Z,45.42
2023-02-23T13:06:50.674Z,45.95
2023-02-23T13:09:54.806Z,42.10
2023-02-23T13:12:40.370Z,45.25
2023-02-23T13:15:23.995Z,42.92
2023-02-23T13:18:28.979Z,40.35
2023-02-23T13:21:30.672Z,42.17
2023-02-23T13:27:45.575Z,40.60
2023-02-23T13:30:18.184Z,36.92
2023-02-23T13:32:50.090Z,36.33
2023-02-23T13:35:20.510Z,31.55
2023-02-23T13:38:04.131Z,32.63
2023-02-23T13:40:55.602Z,31.50
2023-02-23T13:43:53.165Z,33.22
2023-02-23T13:46:56.457Z,30.42
2023-02-23T13:49:54.518Z,31.80
2023-02-23T13:52:49.883Z,32.42
2023-02-23T13:55:49.077Z,32.13
2023-02-23T13:58:47.682Z,32.85
2023-02-23T14:01:38.245Z,31.88
2023-02-23T14:04:13.101Z,31.40
2023-02-23T14:06:53.825Z,28.17
2023-02-23T14:09:27.739Z,31.30
2023-02-23T14:15:50.028Z,28.92
2023-02-23T14:18:25.326Z,32.25
2023-02-23T14:21:30.916Z,29.38
2023-02-23T14:24:32.794Z,32.10
2023-02-23T14:27:14.817Z,30.35
2023-02-23T14:33:00.320Z,28.73
2023-02-23T14:35:42.612Z,27.98
2023-02-23T14:38:45.742Z,26.02
2023-02-23T14:41:29.282Z,26.02
2023-02-23T14:44:28.983Z,25.77
2023-02-23T14:47:13.903Z,24.70
2023-02-23T14:50:23.757Z,23.55
2023-02-23T14:52:55.046Z,24.45
2023-02-23T14:58:24.440Z,22.85
2023-02-23T15:00:58.152Z,21.38
2023-02-23T15:03:25.505Z,21.17
2023-02-23T15:06:06.868Z,22.63
2023-02-23T15:08:40.635Z,21.73
2023-02-23T15:11:19.145Z,23.52
2023-02-23T15:13:58.770Z,22.60
2023-02-23T15:16:37.054Z,20.65
2023-02-23T15:19:05.436Z,21.33
2023-02-23T15:21:32.716Z,21.13
2023-02-23T15:24:07.471Z,21.42
2023-02-23T15:26:37.744Z,19.98
2023-02-23T15:29:10.867Z,20.38
2023-02-23T15:31:58.321Z,20.88
2023-02-23T15:34:52.975Z,20.35
2023-02-23T15:38:14.437Z,20.15
2023-02-23T15:41:05.188Z,20.10
2023-02-23T15:48:52.394Z,22.35
2023-02-23T15:51:39.530Z,21.48
2023-02-23T15:54:22.574Z,21.58
2023-02-23T15:56:57.305Z,22.55
2023-02-23T15:59:36.528Z,21.65
2023-02-23T16:02:13.674Z,22.33
2023-02-23T16:04:48.957Z,23.23
2023-02-23T16:07:44.084Z,22.23
2023-02-23T16:10:26.212Z,15.23
2023-02-23T16:12:55.864Z,20.50
2023-02-23T16:15:35.622Z,22.52
2023-02-23T16:18:06.431Z,22.58
2023-02-23T16:20:44.758Z,22.13
2023-02-23T16:23:33.417Z,23.52
2023-02-23T16:26:11.690Z,22.90
2023-02-23T16:28:45.896Z,21.52
2023-02-23T16:31:20.351Z,22.40
2023-02-23T16:33:57.339Z,22.00
2023-02-23T16:36:40.382Z,25.05
2023-02-23T16:39:12.087Z,23.13
2023-02-23T16:41:39.490Z,28.08
2023-02-23T16:44:14.067Z,25.75
2023-02-23T16:47:00.565Z,25.38
2023-02-23T16:49:35.553Z,25.83
2023-02-23T16:54:32.128Z,25.58
2023-02-23T16:56:59.235Z,26.08
2023-02-23T16:59:26.267Z,25.95
2023-02-23T17:01:53.398Z,25.30
2023-02-23T17:04:22.378Z,26.13
2023-02-23T17:06:55.744Z,27.58
2023-02-23T17:09:24.342Z,28.50
2023-02-23T17:11:51.561Z,30.08
2023-02-23T17:14:28.269Z,30.23
2023-02-23T17:16:55.675Z,30.52
2023-02-23T17:19:25.741Z,31.25
2023-02-23T17:21:53.257Z,30.33
2023-02-23T17:24:24.622Z,30.38
2023-02-23T17:26:55.869Z,32.45
2023-02-23T17:29:23.184Z,33.20
2023-02-23T17:31:51.447Z,33.55
2023-02-23T17:34:18.709Z,36.42
2023-02-23T17:36:45.801Z,33.17
2023-02-23T17:39:14.507Z,37.78
2023-02-23T17:41:41.852Z,37.28
2023-02-23T17:44:09.180Z,36.75
2023-02-23T17:46:36.299Z,34.38
2023-02-23T17:49:03.718Z,36.38
2023-02-23T17:51:30.893Z,32.88
2023-02-23T17:53:58.042Z,35.45
2023-02-23T17:56:25.495Z,33.10
2023-02-23T17:58:52.612Z,34.83
2023-02-23T18:01:26.559Z,33.28
2023-02-23T18:03:54.106Z,33.72
2023-02-23T18:06:21.136Z,31.80
2023-02-23T18:08:48.236Z,34.22
2023-02-23T18:11:20.040Z,32.25
2023-02-23T18:13:53.254Z,33.95
2023-02-23T18:16:23.046Z,34.70
2023-02-23T18:18:50.436Z,33.22
2023-02-23T18:21:38.833Z,35.53
2023-02-23T18:24:13.296Z,37.30
2023-02-23T18:26:48.081Z,32.80
2023-02-23T18:29:18.028Z,34.13
2023-02-23T18:31:45.594Z,35.03
2023-02-23T18:34:13.642Z,34.58
2023-02-23T18:36:44.965Z,35.75
2023-02-23T18:39:12.790Z,35.72
2023-02-23T18:41:43.115Z,35.00
2023-02-23T18:44:17.244Z,44.65
2023-02-23T18:46:53.195Z,17.67
2023-02-23T18:49:22.782Z,10.25
2023-02-23T18:52:09.989Z,8.98
2023-02-23T18:54:43.020Z,8.07
2023-02-23T18:57:52.151Z,7.10
2023-02-23T19:07:00.758Z,7.55
2023-02-23T19:09:40.980Z,6.22
2023-02-23T19:12:14.738Z,6.88
2023-02-23T19:14:49.624Z,6.68
2023-02-23T19:17:17.311Z,8.05
2023-02-23T19:20:08.447Z,7.35
2023-02-23T19:22:52.002Z,7.90
2023-02-23T19:25:44.488Z,7.22
2023-02-23T19:28:37.370Z,6.85
2023-02-23T19:31:11.073Z,7.90
2023-02-23T19:33:38.492Z,8.32
2023-02-23T19:36:35.634Z,7.28
2023-02-23T19:39:18.569Z,7.78
2023-02-23T19:42:00.983Z,7.20
2023-02-23T19:44:31.811Z,7.47
2023-02-23T19:46:59.107Z,7.63
2023-02-23T19:49:28.890Z,8.10
2023-02-23T19:51:58.824Z,8.32
2023-02-23T19:54:34.472Z,6.65
2023-02-23T19:57:02.444Z,6.95
2023-02-23T19:59:42.497Z,7.18
2023-02-23T20:02:12.479Z,7.50
2023-02-23T20:05:12.842Z,6.43
2023-02-23T20:07:47.265Z,7.55
2023-02-23T20:10:17.236Z,5.38
2023-02-23T20:12:50.737Z,7.88
2023-02-23T20:15:21.982Z,7.90
2023-02-23T20:17:50.421Z,10.95
2023-02-23T20:20:19.284Z,8.10
2023-02-23T20:22:50.342Z,7.28
2023-02-23T20:25:18.656Z,6.68
2023-02-23T20:27:46.236Z,5.93
2023-02-23T20:30:14.524Z,7.13
2023-02-23T20:32:42.308Z,5.28
2023-02-23T20:35:11.547Z,5.82
2023-02-23T20:37:38.556Z,6.60
2023-02-23T20:40:16.001Z,7.18
2023-02-23T20:42:44.805Z,7.43
2023-02-23T20:45:14.408Z,8.35
2023-02-23T20:47:42.506Z,7.03
2023-02-23T20:50:13.342Z,9.57
2023-02-23T20:52:41.420Z,9.10
2023-02-23T20:55:10.566Z,7.05
2023-02-23T20:57:37.764Z,6.53
2023-02-23T21:00:11.154Z,6.75
2023-02-23T21:02:41.047Z,7.28
2023-02-23T21:05:12.711Z,7.15
2023-02-23T21:07:41.214Z,6.78
2023-02-23T21:10:09.935Z,6.85
2023-02-23T21:12:37.322Z,5.63
2023-02-23T21:15:05.532Z,5.90
2023-02-23T21:17:33.013Z,6.15
2023-02-23T21:20:01.768Z,7.80
2023-02-23T21:22:29.507Z,6.97
2023-02-23T21:24:56.409Z,6.03
2023-02-23T21:27:24.408Z,7.40
2023-02-23T21:30:34.724Z,7.82
2023-02-23T21:33:04.635Z,6.57
2023-02-23T21:35:31.826Z,7.43
2023-02-23T21:37:59.484Z,6.00
2023-02-23T21:40:26.740Z,6.95
2023-02-23T21:42:53.845Z,6.53
2023-02-23T21:45:21.891Z,5.97
2023-02-23T21:47:49.586Z,7.07
2023-02-23T21:50:19.662Z,5.55
2023-02-23T21:52:48.786Z,5.70
2023-02-23T21:55:24.604Z,7.78
2023-02-23T21:57:52.456Z,6.47
2023-02-23T22:00:21.826Z,5.68
2023-02-23T22:02:49.443Z,5.97
2023-02-23T22:05:17.813Z,6.10
2023-02-23T22:07:50.201Z,6.63
2023-02-23T22:10:19.416Z,6.57
2023-02-23T22:12:46.688Z,7.03
2023-02-23T22:15:16.312Z,6.00
2023-02-23T22:17:44.398Z,6.18
2023-02-23T22:20:20.956Z,5.47
2023-02-23T22:25:38.164Z,6.25
2023-02-23T22:34:43.664Z,6.13
2023-02-23T22:40:26.368Z,5.25
2023-02-23T22:43:02.381Z,6.57
2023-02-23T22:45:32.441Z,6.65
2023-02-23T22:48:08.815Z,6.15
2023-02-23T22:50:38.174Z,5.15
2023-02-23T22:53:07.040Z,6.75
2023-02-23T22:55:35.243Z,5.90
2023-02-23T22:58:02.550Z,4.95
2023-02-23T23:00:32.620Z,5.18
2023-02-23T23:03:05.290Z,5.22
2023-02-23T23:05:32.964Z,5.13
2023-02-23T23:10:49.916Z,5.53
2023-02-23T23:13:26.485Z,7.43
2023-02-23T23:16:07.821Z,5.57
2023-02-23T23:18:39.631Z,5.40
2023-02-23T23:21:15.170Z,6.53
2023-02-23T23:23:45.288Z,4.20
2023-02-23T23:26:15.406Z,5.50
2023-02-23T23:28:55.644Z,5.57
2023-02-23T23:31:34.026Z,5.47
2023-02-23T23:34:13.754Z,5.68
2023-02-23T23:36:49.428Z,5.90
2023-02-23T23:39:24.069Z,5.90
2023-02-23T23:41:54.428Z,5.97
2023-02-23T23:44:26.778Z,5.78
2023-02-23T23:46:56.866Z,6.88
2023-02-23T23:49:30.108Z,5.60
2023-02-23T23:52:00.203Z,5.15
2023-02-23T23:54:33.719Z,6.05
2023-02-23T23:57:08.236Z,5.82
2023-02-23T23:59:47.794Z,5.65
